createdAt,value
2023-09-17T18:21:30.655Z,25.10
2023-09-17T18:27:29.683Z,21.70
2023-09-17T18:33:02.644Z,19.90
2023-09-17T18:38:49.439Z,20.50
2023-09-17T18:44:55.120Z,20.70
2023-09-17T18:50:50.204Z,24.10
2023-09-17T18:57:16.813Z,23.20
2023-09-17T19:02:48.795Z,23.30
2023-09-17T19:08:36.763Z,25.60
2023-09-17T19:14:33.737Z,26.70
2023-09-17T19:19:42.839Z,22.30
2023-09-17T19:25:12.284Z,21.90
2023-09-17T19:30:24.064Z,25.90
2023-09-17T19:36:07.687Z,18.80
2023-09-17T19:42:14.123Z,25.40
2023-09-17T19:47:55.641Z,23.70
2023-09-17T19:53:43.458Z,16.40
2023-09-17T19:59:54.937Z,16.40
2023-09-17T20:05:39.332Z,16.00
2023-09-17T20:12:18.736Z,24.40
2023-09-17T20:17:41.634Z,20.40
2023-09-17T20:23:15.522Z,19.20
2023-09-17T20:28:18.851Z,20.60
2023-09-17T20:33:41.619Z,16.90
2023-09-17T20:39:27.630Z,17.90
2023-09-17T20:45:07.717Z,17.10
2023-09-17T20:50:34.058Z,18.90
2023-09-17T20:57:04.870Z,22.40
2023-09-17T21:02:57.108Z,20.70
2023-09-17T21:08:38.073Z,18.20
2023-09-17T21:14:45.533Z,22.80
2023-09-17T21:20:51.977Z,20.30
2023-09-17T21:27:55.656Z,24.30
2023-09-17T21:34:46.537Z,19.80
2023-09-17T21:41:22.056Z,20.50
2023-09-17T21:48:08.491Z,19.80
2023-09-17T21:55:08.619Z,16.20
2023-09-17T22:01:19.732Z,16.60
2023-09-17T22:07:45.765Z,17.40
2023-09-17T22:14:16.530Z,17.70
2023-09-17T22:20:39.902Z,17.20
2023-09-17T22:26:44.652Z,15.20
2023-09-17T22:33:15.454Z,15.40
2023-09-17T22:40:01.655Z,11.70
2023-09-17T22:46:36.990Z,15.60
2023-09-17T22:52:59.731Z,13.90
2023-09-17T22:59:58.494Z,14.80
2023-09-17T23:06:36.611Z,16.80
2023-09-17T23:12:25.534Z,16.10
2023-09-17T23:18:41.479Z,15.80
2023-09-17T23:24:58.172Z,17.30
2023-09-17T23:31:30.593Z,15.10
2023-09-17T23:44:31.946Z,15.50
2023-09-17T23:50:52.327Z,17.90
2023-09-17T23:56:42.734Z,15.90
